sensor_id;sensor_type;location;lat;lon;timestamp;temperature;humidity
37518;DHT22;23366;52.498;13.446;2023-07-29T00:01:55;18.70;99.90
37518;DHT22;23366;52.498;13.446;2023-07-29T00:04:20;18.70;99.90
37518;DHT22;23366;52.498;13.446;2023-07-29T00:06:46;18.60;99.90
37518;DHT22;23366;52.498;13.446;2023-07-29T00:09:11;18.60;99.90
37518;DHT22;23366;52.498;13.446;2023-07-29T00:11:40;18.50;99.90
37518;DHT22;23366;52.498;13.446;2023-07-29T00:14:09;18.50;99.90
37518;DHT22;23366;52.498;13.446;2023-07-29T00:16:34;18.50;99.90
37518;DHT22;23366;52.498;13.446;2023-07-29T00:19:00;18.50;99.90
37518;DHT22;23366;52.498;13.446;2023-07-29T00:21:28;18.40;99.90
37518;DHT22;23366;52.498;13.446;2023-07-29T00:23:53;18.40;99.90
37518;DHT22;23366;52.498;13.446;2023-07-29T00:26:19;18.40;99.90
37518;DHT22;23366;52.498;13.446;2023-07-29T00:28:45;18.40;99.90
37518;DHT22;23366;52.498;13.446;2023-07-29T00:31:10;18.40;99.90
37518;DHT22;23366;52.498;13.446;2023-07-29T00:33:36;18.40;99.90
37518;DHT22;23366;52.498;13.446;2023-07-29T00:36:01;18.40;99.90
37518;DHT22;23366;52.498;13.446;2023-07-29T00:38:28;18.40;99.90
37518;DHT22;23366;52.498;13.446;2023-07-29T00:40:53;18.30;99.90
37518;DHT22;23366;52.498;13.446;2023-07-29T00:43:19;18.30;99.90
37518;DHT22;23366;52.498;13.446;2023-07-29T00:45:44;18.30;99.90
37518;DHT22;23366;52.498;13.446;2023-07-29T00:48:12;18.30;99.90
37518;DHT22;23366;52.498;13.446;2023-07-29T00:50:41;18.20;99.90
37518;DHT22;23366;52.498;13.446;2023-07-29T00:53:07;18.20;99.90
37518;DHT22;23366;52.498;13.446;2023-07-29T00:55:32;18.20;99.90
37518;DHT22;23366;52.498;13.446;2023-07-29T00:57:58;18.20;99.90
37518;DHT22;23366;52.498;13.446;2023-07-29T01:00:23;18.20;99.90
37518;DHT22;23366;52.498;13.446;2023-07-29T01:02:50;18.20;99.90
37518;DHT22;23366;52.498;13.446;2023-07-29T01:05:16;18.20;99.90
37518;DHT22;23366;52.498;13.446;2023-07-29T01:08:03;18.20;99.90
37518;DHT22;23366;52.498;13.446;2023-07-29T01:10:56;18.20;99.90
37518;DHT22;23366;52.498;13.446;2023-07-29T01:13:39;18.20;99.90
37518;DHT22;23366;52.498;13.446;2023-07-29T01:16:39;18.10;99.90
37518;DHT22;23366;52.498;13.446;2023-07-29T01:19:06;18.10;99.90
37518;DHT22;23366;52.498;13.446;2023-07-29T01:21:35;18.10;99.90
37518;DHT22;23366;52.498;13.446;2023-07-29T01:24:01;18.10;99.90
37518;DHT22;23366;52.498;13.446;2023-07-29T01:26:27;18.00;99.90
37518;DHT22;23366;52.498;13.446;2023-07-29T01:28:55;18.00;99.90
37518;DHT22;23366;52.498;13.446;2023-07-29T01:31:31;18.00;99.90
37518;DHT22;23366;52.498;13.446;2023-07-29T01:34:01;18.00;99.90
37518;DHT22;23366;52.498;13.446;2023-07-29T01:36:32;18.00;99.90
37518;DHT22;23366;52.498;13.446;2023-07-29T01:39:00;18.00;99.90
37518;DHT22;23366;52.498;13.446;2023-07-29T01:41:27;18.00;99.90
37518;DHT22;23366;52.498;13.446;2023-07-29T01:43:54;18.00;99.90
37518;DHT22;23366;52.498;13.446;2023-07-29T01:46:20;18.00;99.90
37518;DHT22;23366;52.498;13.446;2023-07-29T01:48:46;17.90;99.90
37518;DHT22;23366;52.498;13.446;2023-07-29T01:51:12;17.90;99.90
37518;DHT22;23366;52.498;13.446;2023-07-29T01:53:38;17.90;99.90
37518;DHT22;23366;52.498;13.446;2023-07-29T01:56:03;17.90;99.90
37518;DHT22;23366;52.498;13.446;2023-07-29T01:58:29;17.90;99.90
37518;DHT22;23366;52.498;13.446;2023-07-29T02:00:54;17.90;99.90
37518;DHT22;23366;52.498;13.446;2023-07-29T02:03:20;17.80;99.90
37518;DHT22;23366;52.498;13.446;2023-07-29T02:05:45;17.80;99.90
37518;DHT22;23366;52.498;13.446;2023-07-29T02:08:11;17.80;99.90
37518;DHT22;23366;52.498;13.446;2023-07-29T02:10:36;17.80;99.90
37518;DHT22;23366;52.498;13.446;2023-07-29T02:13:11;17.80;99.90
37518;DHT22;23366;52.498;13.446;2023-07-29T02:15:36;17.80;99.90
37518;DHT22;23366;52.498;13.446;2023-07-29T02:18:02;17.70;99.90
37518;DHT22;23366;52.498;13.446;2023-07-29T02:20:28;17.70;99.90
37518;DHT22;23366;52.498;13.446;2023-07-29T02:22:54;17.70;99.90
37518;DHT22;23366;52.498;13.446;2023-07-29T02:25:19;17.70;99.90
37518;DHT22;23366;52.498;13.446;2023-07-29T02:27:45;17.70;99.90
37518;DHT22;23366;52.498;13.446;2023-07-29T02:30:11;17.70;99.90
37518;DHT22;23366;52.498;13.446;2023-07-29T02:32:37;17.70;99.90
37518;DHT22;23366;52.498;13.446;2023-07-29T02:35:03;17.70;99.90
37518;DHT22;23366;52.498;13.446;2023-07-29T02:37:30;17.70;99.90
37518;DHT22;23366;52.498;13.446;2023-07-29T02:39:55;17.70;99.90
37518;DHT22;23366;52.498;13.446;2023-07-29T02:42:20;17.70;99.90
37518;DHT22;23366;52.498;13.446;2023-07-29T02:44:46;17.60;99.90
37518;DHT22;23366;52.498;13.446;2023-07-29T02:47:12;17.60;99.90
37518;DHT22;23366;52.498;13.446;2023-07-29T02:49:37;17.60;99.90
37518;DHT22;23366;52.498;13.446;2023-07-29T02:52:03;17.50;99.90
37518;DHT22;23366;52.498;13.446;2023-07-29T02:54:29;17.50;99.90
37518;DHT22;23366;52.498;13.446;2023-07-29T02:56:54;17.50;99.90
37518;DHT22;23366;52.498;13.446;2023-07-29T02:59:19;17.50;99.90
37518;DHT22;23366;52.498;13.446;2023-07-29T03:01:45;17.50;99.90
37518;DHT22;23366;52.498;13.446;2023-07-29T03:04:11;17.50;99.90
37518;DHT22;23366;52.498;13.446;2023-07-29T03:06:38;17.50;99.90
37518;DHT22;23366;52.498;13.446;2023-07-29T03:09:03;17.50;99.90
37518;DHT22;23366;52.498;13.446;2023-07-29T03:11:30;17.50;99.90
37518;DHT22;23366;52.498;13.446;2023-07-29T03:13:56;17.40;99.90
37518;DHT22;23366;52.498;13.446;2023-07-29T03:16:22;17.40;99.90
37518;DHT22;23366;52.498;13.446;2023-07-29T03:18:48;17.40;99.90
37518;DHT22;23366;52.498;13.446;2023-07-29T03:21:13;17.40;99.90
37518;DHT22;23366;52.498;13.446;2023-07-29T03:23:39;17.40;99.90
37518;DHT22;23366;52.498;13.446;2023-07-29T03:26:04;17.40;99.90
37518;DHT22;23366;52.498;13.446;2023-07-29T03:28:39;17.40;99.90
37518;DHT22;23366;52.498;13.446;2023-07-29T03:31:05;17.40;99.90
37518;DHT22;23366;52.498;13.446;2023-07-29T03:33:31;17.40;99.90
37518;DHT22;23366;52.498;13.446;2023-07-29T03:35:57;17.40;99.90
37518;DHT22;23366;52.498;13.446;2023-07-29T03:38:22;17.50;99.90
37518;DHT22;23366;52.498;13.446;2023-07-29T03:40:48;17.40;99.90
37518;DHT22;23366;52.498;13.446;2023-07-29T03:43:27;17.40;99.90
37518;DHT22;23366;52.498;13.446;2023-07-29T03:45:52;17.40;99.90
37518;DHT22;23366;52.498;13.446;2023-07-29T03:48:17;17.40;99.90
37518;DHT22;23366;52.498;13.446;2023-07-29T03:50:43;17.40;99.90
37518;DHT22;23366;52.498;13.446;2023-07-29T03:53:08;17.40;99.90
37518;DHT22;23366;52.498;13.446;2023-07-29T03:55:35;17.40;99.90
37518;DHT22;23366;52.498;13.446;2023-07-29T03:58:00;17.50;99.90
37518;DHT22;23366;52.498;13.446;2023-07-29T04:00:26;17.50;99.90
37518;DHT22;23366;52.498;13.446;2023-07-29T04:02:52;17.50;99.90
37518;DHT22;23366;52.498;13.446;2023-07-29T04:05:17;17.50;99.90
37518;DHT22;23366;52.498;13.446;2023-07-29T04:07:43;17.60;99.90
37518;DHT22;23366;52.498;13.446;2023-07-29T04:10:09;17.60;99.90
37518;DHT22;23366;52.498;13.446;2023-07-29T04:12:34;17.70;99.90
37518;DHT22;23366;52.498;13.446;2023-07-29T04:15:00;17.70;99.90
37518;DHT22;23366;52.498;13.446;2023-07-29T04:17:25;17.80;99.90
37518;DHT22;23366;52.498;13.446;2023-07-29T04:19:51;18.00;99.90
37518;DHT22;23366;52.498;13.446;2023-07-29T04:22:16;18.10;99.90
37518;DHT22;23366;52.498;13.446;2023-07-29T04:24:42;18.20;99.90
37518;DHT22;23366;52.498;13.446;2023-07-29T04:27:07;18.30;99.90
37518;DHT22;23366;52.498;13.446;2023-07-29T04:29:33;18.40;99.90
37518;DHT22;23366;52.498;13.446;2023-07-29T04:32:01;18.60;99.90
37518;DHT22;23366;52.498;13.446;2023-07-29T04:34:26;18.80;99.90
37518;DHT22;23366;52.498;13.446;2023-07-29T04:36:52;19.00;99.90
37518;DHT22;23366;52.498;13.446;2023-07-29T04:39:17;19.10;99.90
37518;DHT22;23366;52.498;13.446;2023-07-29T04:41:43;19.30;99.90
37518;DHT22;23366;52.498;13.446;2023-07-29T04:44:09;19.40;99.90
37518;DHT22;23366;52.498;13.446;2023-07-29T04:46:36;19.60;99.90
37518;DHT22;23366;52.498;13.446;2023-07-29T04:49:02;19.60;99.90
37518;DHT22;23366;52.498;13.446;2023-07-29T04:51:28;19.70;99.90
37518;DHT22;23366;52.498;13.446;2023-07-29T04:53:53;19.70;99.90
37518;DHT22;23366;52.498;13.446;2023-07-29T04:56:19;19.70;99.90
37518;DHT22;23366;52.498;13.446;2023-07-29T04:58:45;19.80;99.90
37518;DHT22;23366;52.498;13.446;2023-07-29T05:01:10;19.90;99.90
37518;DHT22;23366;52.498;13.446;2023-07-29T05:03:36;20.30;99.90
37518;DHT22;23366;52.498;13.446;2023-07-29T05:06:02;21.10;99.90
37518;DHT22;23366;52.498;13.446;2023-07-29T05:08:28;21.90;99.90
37518;DHT22;23366;52.498;13.446;2023-07-29T05:10:54;22.50;99.90
37518;DHT22;23366;52.498;13.446;2023-07-29T05:13:20;23.10;99.90
37518;DHT22;23366;52.498;13.446;2023-07-29T05:15:47;23.70;99.90
37518;DHT22;23366;52.498;13.446;2023-07-29T05:18:12;24.20;99.90
37518;DHT22;23366;52.498;13.446;2023-07-29T05:20:38;24.70;99.90
37518;DHT22;23366;52.498;13.446;2023-07-29T05:23:03;25.00;99.90
37518;DHT22;23366;52.498;13.446;2023-07-29T05:25:29;25.50;99.90
37518;DHT22;23366;52.498;13.446;2023-07-29T05:27:54;26.20;99.90
37518;DHT22;23366;52.498;13.446;2023-07-29T05:30:20;26.90;99.90
37518;DHT22;23366;52.498;13.446;2023-07-29T05:32:45;27.70;99.90
37518;DHT22;23366;52.498;13.446;2023-07-29T05:35:11;28.60;99.90
37518;DHT22;23366;52.498;13.446;2023-07-29T05:37:39;29.10;99.90
37518;DHT22;23366;52.498;13.446;2023-07-29T05:40:07;28.90;99.90
37518;DHT22;23366;52.498;13.446;2023-07-29T05:42:34;28.20;99.90
37518;DHT22;23366;52.498;13.446;2023-07-29T05:44:59;27.50;99.90
37518;DHT22;23366;52.498;13.446;2023-07-29T05:47:25;26.70;99.90
37518;DHT22;23366;52.498;13.446;2023-07-29T05:49:50;26.10;99.90
37518;DHT22;23366;52.498;13.446;2023-07-29T05:52:16;25.80;99.90
37518;DHT22;23366;52.498;13.446;2023-07-29T05:54:41;25.80;99.90
37518;DHT22;23366;52.498;13.446;2023-07-29T05:57:09;26.40;99.90
37518;DHT22;23366;52.498;13.446;2023-07-29T05:59:34;27.10;99.90
37518;DHT22;23366;52.498;13.446;2023-07-29T06:02:00;27.40;99.90
37518;DHT22;23366;52.498;13.446;2023-07-29T06:04:25;27.80;99.90
37518;DHT22;23366;52.498;13.446;2023-07-29T06:06:51;28.60;99.90
37518;DHT22;23366;52.498;13.446;2023-07-29T06:09:16;29.60;99.90
37518;DHT22;23366;52.498;13.446;2023-07-29T06:11:42;30.70;99.60
37518;DHT22;23366;52.498;13.446;2023-07-29T06:14:07;31.70;97.80
37518;DHT22;23366;52.498;13.446;2023-07-29T06:16:33;32.60;95.60
37518;DHT22;23366;52.498;13.446;2023-07-29T06:18:58;33.30;93.30
37518;DHT22;23366;52.498;13.446;2023-07-29T06:21:24;33.40;91.50
37518;DHT22;23366;52.498;13.446;2023-07-29T06:23:49;32.80;91.90
37518;DHT22;23366;52.498;13.446;2023-07-29T06:26:15;32.50;92.60
37518;DHT22;23366;52.498;13.446;2023-07-29T06:28:40;32.80;91.60
37518;DHT22;23366;52.498;13.446;2023-07-29T06:31:06;33.40;91.00
37518;DHT22;23366;52.498;13.446;2023-07-29T06:33:31;34.20;89.70
37518;DHT22;23366;52.498;13.446;2023-07-29T06:35:57;35.10;86.90
37518;DHT22;23366;52.498;13.446;2023-07-29T06:38:22;35.80;83.90
37518;DHT22;23366;52.498;13.446;2023-07-29T06:40:48;36.10;81.50
37518;DHT22;23366;52.498;13.446;2023-07-29T06:43:21;35.10;81.70
37518;DHT22;23366;52.498;13.446;2023-07-29T06:45:47;34.60;83.90
37518;DHT22;23366;52.498;13.446;2023-07-29T06:48:12;34.60;83.40
37518;DHT22;23366;52.498;13.446;2023-07-29T06:50:38;34.50;84.00
37518;DHT22;23366;52.498;13.446;2023-07-29T06:53:03;34.90;83.80
37518;DHT22;23366;52.498;13.446;2023-07-29T06:55:29;35.60;82.00
37518;DHT22;23366;52.498;13.446;2023-07-29T06:57:54;36.40;79.60
37518;DHT22;23366;52.498;13.446;2023-07-29T07:00:20;37.10;79.00
37518;DHT22;23366;52.498;13.446;2023-07-29T07:02:45;37.60;75.70
37518;DHT22;23366;52.498;13.446;2023-07-29T07:05:11;37.00;74.70
37518;DHT22;23366;52.498;13.446;2023-07-29T07:07:36;36.10;76.50
37518;DHT22;23366;52.498;13.446;2023-07-29T07:10:03;35.00;79.60
37518;DHT22;23366;52.498;13.446;2023-07-29T07:12:28;34.00;80.80
37518;DHT22;23366;52.498;13.446;2023-07-29T07:14:54;33.10;83.00
37518;DHT22;23366;52.498;13.446;2023-07-29T07:17:19;32.30;85.70
37518;DHT22;23366;52.498;13.446;2023-07-29T07:19:45;32.00;88.20
37518;DHT22;23366;52.498;13.446;2023-07-29T07:22:11;31.70;88.10
37518;DHT22;23366;52.498;13.446;2023-07-29T07:24:37;31.60;88.70
37518;DHT22;23366;52.498;13.446;2023-07-29T07:27:02;31.20;90.20
37518;DHT22;23366;52.498;13.446;2023-07-29T07:29:28;31.30;90.00
37518;DHT22;23366;52.498;13.446;2023-07-29T07:31:56;31.20;90.20
37518;DHT22;23366;52.498;13.446;2023-07-29T07:34:21;31.00;90.70
37518;DHT22;23366;52.498;13.446;2023-07-29T07:36:47;30.60;90.90
37518;DHT22;23366;52.498;13.446;2023-07-29T07:39:13;30.40;91.60
37518;DHT22;23366;52.498;13.446;2023-07-29T07:41:39;30.30;92.20
37518;DHT22;23366;52.498;13.446;2023-07-29T07:44:04;30.40;92.20
37518;DHT22;23366;52.498;13.446;2023-07-29T07:46:30;31.10;91.90
37518;DHT22;23366;52.498;13.446;2023-07-29T07:48:55;31.80;90.30
37518;DHT22;23366;52.498;13.446;2023-07-29T07:51:21;32.00;90.30
37518;DHT22;23366;52.498;13.446;2023-07-29T07:53:46;32.60;89.40
37518;DHT22;23366;52.498;13.446;2023-07-29T07:56:12;33.40;87.90
37518;DHT22;23366;52.498;13.446;2023-07-29T07:58:38;33.50;85.60
37518;DHT22;23366;52.498;13.446;2023-07-29T08:01:07;33.20;86.60
37518;DHT22;23366;52.498;13.446;2023-07-29T08:03:34;32.60;87.50
37518;DHT22;23366;52.498;13.446;2023-07-29T08:05:59;32.10;88.20
37518;DHT22;23366;52.498;13.446;2023-07-29T08:08:26;31.60;90.00
37518;DHT22;23366;52.498;13.446;2023-07-29T08:10:56;31.80;90.40
37518;DHT22;23366;52.498;13.446;2023-07-29T08:13:22;33.70;87.30
37518;DHT22;23366;52.498;13.446;2023-07-29T08:15:49;35.80;82.90
37518;DHT22;23366;52.498;13.446;2023-07-29T08:18:16;37.80;77.00
37518;DHT22;23366;52.498;13.446;2023-07-29T08:20:51;39.00;73.60
37518;DHT22;23366;52.498;13.446;2023-07-29T08:23:16;38.80;74.10
37518;DHT22;23366;52.498;13.446;2023-07-29T08:25:42;38.20;71.70
37518;DHT22;23366;52.498;13.446;2023-07-29T08:28:07;37.40;73.40
37518;DHT22;23366;52.498;13.446;2023-07-29T08:30:32;36.20;74.60
37518;DHT22;23366;52.498;13.446;2023-07-29T08:32:58;34.90;77.80
37518;DHT22;23366;52.498;13.446;2023-07-29T08:35:23;33.70;79.20
37518;DHT22;23366;52.498;13.446;2023-07-29T08:37:49;32.80;81.80
37518;DHT22;23366;52.498;13.446;2023-07-29T08:40:14;32.30;83.50
37518;DHT22;23366;52.498;13.446;2023-07-29T08:42:41;31.90;84.40
37518;DHT22;23366;52.498;13.446;2023-07-29T08:45:08;32.10;86.20
37518;DHT22;23366;52.498;13.446;2023-07-29T08:47:34;32.30;85.50
37518;DHT22;23366;52.498;13.446;2023-07-29T08:50:01;32.50;84.20
37518;DHT22;23366;52.498;13.446;2023-07-29T08:52:27;32.50;83.30
37518;DHT22;23366;52.498;13.446;2023-07-29T08:54:54;32.20;83.10
37518;DHT22;23366;52.498;13.446;2023-07-29T08:57:20;31.60;85.90
37518;DHT22;23366;52.498;13.446;2023-07-29T08:59:46;30.90;88.20
37518;DHT22;23366;52.498;13.446;2023-07-29T09:02:11;30.30;90.10
37518;DHT22;23366;52.498;13.446;2023-07-29T09:04:37;30.10;90.80
37518;DHT22;23366;52.498;13.446;2023-07-29T09:07:03;30.30;90.80
37518;DHT22;23366;52.498;13.446;2023-07-29T09:09:29;30.50;90.20
37518;DHT22;23366;52.498;13.446;2023-07-29T09:11:55;30.80;90.40
37518;DHT22;23366;52.498;13.446;2023-07-29T09:14:21;31.00;90.50
37518;DHT22;23366;52.498;13.446;2023-07-29T09:16:46;31.20;90.40
37518;DHT22;23366;52.498;13.446;2023-07-29T09:19:12;31.10;90.40
37518;DHT22;23366;52.498;13.446;2023-07-29T09:21:41;30.70;90.60
37518;DHT22;23366;52.498;13.446;2023-07-29T09:24:07;30.40;91.60
37518;DHT22;23366;52.498;13.446;2023-07-29T09:26:33;30.00;91.50
37518;DHT22;23366;52.498;13.446;2023-07-29T09:28:59;29.50;91.50
37518;DHT22;23366;52.498;13.446;2023-07-29T09:31:27;29.20;92.90
37518;DHT22;23366;52.498;13.446;2023-07-29T09:33:57;28.80;93.00
37518;DHT22;23366;52.498;13.446;2023-07-29T09:36:23;28.60;93.60
37518;DHT22;23366;52.498;13.446;2023-07-29T09:38:53;28.40;93.90
37518;DHT22;23366;52.498;13.446;2023-07-29T09:41:19;28.30;94.20
37518;DHT22;23366;52.498;13.446;2023-07-29T09:43:44;28.30;95.90
37518;DHT22;23366;52.498;13.446;2023-07-29T09:46:09;28.50;94.90
37518;DHT22;23366;52.498;13.446;2023-07-29T09:48:36;28.80;95.00
37518;DHT22;23366;52.498;13.446;2023-07-29T09:51:15;29.10;94.10
37518;DHT22;23366;52.498;13.446;2023-07-29T09:53:45;29.00;93.20
37518;DHT22;23366;52.498;13.446;2023-07-29T09:56:11;28.80;93.80
37518;DHT22;23366;52.498;13.446;2023-07-29T09:58:38;28.70;94.00
37518;DHT22;23366;52.498;13.446;2023-07-29T10:01:08;28.40;95.30
37518;DHT22;23366;52.498;13.446;2023-07-29T10:03:34;28.40;95.10
37518;DHT22;23366;52.498;13.446;2023-07-29T10:06:02;28.40;94.40
37518;DHT22;23366;52.498;13.446;2023-07-29T10:08:30;28.60;95.50
37518;DHT22;23366;52.498;13.446;2023-07-29T10:10:59;28.80;94.70
37518;DHT22;23366;52.498;13.446;2023-07-29T10:13:25;28.90;94.30
37518;DHT22;23366;52.498;13.446;2023-07-29T10:15:53;28.80;94.30
37518;DHT22;23366;52.498;13.446;2023-07-29T10:18:18;28.80;94.30
37518;DHT22;23366;52.498;13.446;2023-07-29T10:20:45;28.90;94.00
37518;DHT22;23366;52.498;13.446;2023-07-29T10:23:12;28.80;93.40
37518;DHT22;23366;52.498;13.446;2023-07-29T10:28:12;28.50;94.20
37518;DHT22;23366;52.498;13.446;2023-07-29T10:30:38;28.50;93.30
37518;DHT22;23366;52.498;13.446;2023-07-29T10:33:05;28.40;95.00
37518;DHT22;23366;52.498;13.446;2023-07-29T10:35:33;28.30;95.10
37518;DHT22;23366;52.498;13.446;2023-07-29T10:37:59;28.10;98.80
37518;DHT22;23366;52.498;13.446;2023-07-29T10:40:25;27.60;99.90
37518;DHT22;23366;52.498;13.446;2023-07-29T10:43:11;27.10;99.90
37518;DHT22;23366;52.498;13.446;2023-07-29T10:45:38;26.70;99.90
37518;DHT22;23366;52.498;13.446;2023-07-29T10:48:10;26.30;99.90
37518;DHT22;23366;52.498;13.446;2023-07-29T10:50:36;26.00;99.90
37518;DHT22;23366;52.498;13.446;2023-07-29T10:53:01;25.80;99.90
37518;DHT22;23366;52.498;13.446;2023-07-29T10:55:36;25.70;99.90
37518;DHT22;23366;52.498;13.446;2023-07-29T10:58:07;25.80;99.90
37518;DHT22;23366;52.498;13.446;2023-07-29T11:00:33;26.00;99.90
37518;DHT22;23366;52.498;13.446;2023-07-29T11:03:01;26.20;99.90
37518;DHT22;23366;52.498;13.446;2023-07-29T11:05:48;26.20;99.90
37518;DHT22;23366;52.498;13.446;2023-07-29T11:08:30;26.30;99.90
37518;DHT22;23366;52.498;13.446;2023-07-29T11:11:07;26.10;99.90
37518;DHT22;23366;52.498;13.446;2023-07-29T11:13:35;25.90;99.90
37518;DHT22;23366;52.498;13.446;2023-07-29T11:16:01;25.80;99.90
37518;DHT22;23366;52.498;13.446;2023-07-29T11:18:31;25.70;99.90
37518;DHT22;23366;52.498;13.446;2023-07-29T11:20:58;25.70;99.90
37518;DHT22;23366;52.498;13.446;2023-07-29T11:23:34;25.40;99.90
37518;DHT22;23366;52.498;13.446;2023-07-29T11:26:00;25.10;99.90
37518;DHT22;23366;52.498;13.446;2023-07-29T11:28:27;24.60;99.90
37518;DHT22;23366;52.498;13.446;2023-07-29T11:30:54;23.60;99.90
37518;DHT22;23366;52.498;13.446;2023-07-29T11:33:21;22.80;99.90
37518;DHT22;23366;52.498;13.446;2023-07-29T11:35:47;22.30;99.90
37518;DHT22;23366;52.498;13.446;2023-07-29T11:38:16;21.90;99.90
37518;DHT22;23366;52.498;13.446;2023-07-29T11:40:42;21.80;99.90
37518;DHT22;23366;52.498;13.446;2023-07-29T11:43:08;21.70;99.90
37518;DHT22;23366;52.498;13.446;2023-07-29T11:45:33;21.60;99.90
37518;DHT22;23366;52.498;13.446;2023-07-29T11:48:01;21.60;99.90
37518;DHT22;23366;52.498;13.446;2023-07-29T11:50:26;21.60;99.90
37518;DHT22;23366;52.498;13.446;2023-07-29T11:52:55;21.50;99.90
37518;DHT22;23366;52.498;13.446;2023-07-29T11:55:21;21.60;99.90
37518;DHT22;23366;52.498;13.446;2023-07-29T11:57:51;21.60;99.90
37518;DHT22;23366;52.498;13.446;2023-07-29T12:00:16;21.60;99.90
37518;DHT22;23366;52.498;13.446;2023-07-29T12:02:44;21.60;99.90
37518;DHT22;23366;52.498;13.446;2023-07-29T12:05:10;21.50;99.90
37518;DHT22;23366;52.498;13.446;2023-07-29T12:07:42;21.40;99.90
37518;DHT22;23366;52.498;13.446;2023-07-29T12:10:07;21.50;99.90
37518;DHT22;23366;52.498;13.446;2023-07-29T12:12:37;21.50;99.90
37518;DHT22;23366;52.498;13.446;2023-07-29T12:15:02;21.50;99.90
37518;DHT22;23366;52.498;13.446;2023-07-29T12:17:28;21.50;99.90
37518;DHT22;23366;52.498;13.446;2023-07-29T12:19:55;21.60;99.90
37518;DHT22;23366;52.498;13.446;2023-07-29T12:22:20;21.60;99.90
37518;DHT22;23366;52.498;13.446;2023-07-29T12:24:51;21.70;99.90
37518;DHT22;23366;52.498;13.446;2023-07-29T12:27:17;21.60;99.90
37518;DHT22;23366;52.498;13.446;2023-07-29T12:29:44;21.70;99.90
37518;DHT22;23366;52.498;13.446;2023-07-29T12:32:11;21.60;99.90
37518;DHT22;23366;52.498;13.446;2023-07-29T12:34:38;21.60;99.90
37518;DHT22;23366;52.498;13.446;2023-07-29T12:37:05;21.70;99.90
37518;DHT22;23366;52.498;13.446;2023-07-29T12:39:33;21.70;99.90
37518;DHT22;23366;52.498;13.446;2023-07-29T12:41:59;21.80;99.90
37518;DHT22;23366;52.498;13.446;2023-07-29T12:44:36;21.80;99.90
37518;DHT22;23366;52.498;13.446;2023-07-29T12:47:03;21.90;99.90
37518;DHT22;23366;52.498;13.446;2023-07-29T12:49:30;22.10;99.90
37518;DHT22;23366;52.498;13.446;2023-07-29T12:51:57;22.20;99.90
37518;DHT22;23366;52.498;13.446;2023-07-29T12:54:22;22.40;99.90
37518;DHT22;23366;52.498;13.446;2023-07-29T12:56:48;22.70;99.90
37518;DHT22;23366;52.498;13.446;2023-07-29T12:59:13;23.00;99.90
37518;DHT22;23366;52.498;13.446;2023-07-29T13:01:41;23.20;99.90
37518;DHT22;23366;52.498;13.446;2023-07-29T13:04:07;23.40;99.90
37518;DHT22;23366;52.498;13.446;2023-07-29T13:06:32;23.50;99.90
37518;DHT22;23366;52.498;13.446;2023-07-29T13:08:58;23.50;99.90
37518;DHT22;23366;52.498;13.446;2023-07-29T13:11:24;23.50;99.90
37518;DHT22;23366;52.498;13.446;2023-07-29T13:13:51;23.40;99.90
37518;DHT22;23366;52.498;13.446;2023-07-29T13:16:16;23.40;99.90
37518;DHT22;23366;52.498;13.446;2023-07-29T13:18:44;23.40;99.90
37518;DHT22;23366;52.498;13.446;2023-07-29T13:21:12;23.40;99.90
37518;DHT22;23366;52.498;13.446;2023-07-29T13:23:38;23.50;99.90
37518;DHT22;23366;52.498;13.446;2023-07-29T13:26:03;23.40;99.90
37518;DHT22;23366;52.498;13.446;2023-07-29T13:28:29;23.30;99.90
37518;DHT22;23366;52.498;13.446;2023-07-29T13:30:54;23.20;99.90
37518;DHT22;23366;52.498;13.446;2023-07-29T13:33:20;23.10;99.90
37518;DHT22;23366;52.498;13.446;2023-07-29T13:38:11;23.00;99.90
37518;DHT22;23366;52.498;13.446;2023-07-29T13:40:37;23.10;99.90
37518;DHT22;23366;52.498;13.446;2023-07-29T13:43:02;23.10;99.90
37518;DHT22;23366;52.498;13.446;2023-07-29T13:45:28;23.20;99.90
37518;DHT22;23366;52.498;13.446;2023-07-29T13:47:53;23.40;99.90
37518;DHT22;23366;52.498;13.446;2023-07-29T13:50:19;23.60;99.90
37518;DHT22;23366;52.498;13.446;2023-07-29T13:52:44;23.80;99.90
37518;DHT22;23366;52.498;13.446;2023-07-29T13:55:10;23.90;99.90
37518;DHT22;23366;52.498;13.446;2023-07-29T13:57:37;24.00;99.90
37518;DHT22;23366;52.498;13.446;2023-07-29T14:00:04;24.10;99.90
37518;DHT22;23366;52.498;13.446;2023-07-29T14:02:30;24.20;99.90
37518;DHT22;23366;52.498;13.446;2023-07-29T14:04:56;24.30;99.90
37518;DHT22;23366;52.498;13.446;2023-07-29T14:07:22;24.30;99.90
37518;DHT22;23366;52.498;13.446;2023-07-29T14:09:47;24.10;99.90
37518;DHT22;23366;52.498;13.446;2023-07-29T14:12:15;24.00;99.90
37518;DHT22;23366;52.498;13.446;2023-07-29T14:14:41;24.00;99.90
37518;DHT22;23366;52.498;13.446;2023-07-29T14:17:07;24.00;99.90
37518;DHT22;23366;52.498;13.446;2023-07-29T14:19:34;24.00;99.90
37518;DHT22;23366;52.498;13.446;2023-07-29T14:21:59;23.90;99.90
37518;DHT22;23366;52.498;13.446;2023-07-29T14:24:25;23.80;99.90
37518;DHT22;23366;52.498;13.446;2023-07-29T14:26:50;23.90;99.90
37518;DHT22;23366;52.498;13.446;2023-07-29T14:29:19;23.90;99.90
37518;DHT22;23366;52.498;13.446;2023-07-29T14:31:45;24.00;99.90
37518;DHT22;23366;52.498;13.446;2023-07-29T14:34:15;24.00;99.90
37518;DHT22;23366;52.498;13.446;2023-07-29T14:36:41;24.00;99.90
37518;DHT22;23366;52.498;13.446;2023-07-29T14:39:07;24.00;99.90
37518;DHT22;23366;52.498;13.446;2023-07-29T14:41:33;24.00;99.90
37518;DHT22;23366;52.498;13.446;2023-07-29T14:43:58;24.10;99.90
37518;DHT22;23366;52.498;13.446;2023-07-29T14:46:23;24.10;99.90
37518;DHT22;23366;52.498;13.446;2023-07-29T14:48:49;24.10;99.90
37518;DHT22;23366;52.498;13.446;2023-07-29T14:51:15;24.00;99.90
37518;DHT22;23366;52.498;13.446;2023-07-29T14:53:40;23.90;99.90
37518;DHT22;23366;52.498;13.446;2023-07-29T14:56:07;23.80;99.90
37518;DHT22;23366;52.498;13.446;2023-07-29T14:58:33;23.90;99.90
37518;DHT22;23366;52.498;13.446;2023-07-29T15:00:58;24.00;99.90
37518;DHT22;23366;52.498;13.446;2023-07-29T15:03:24;24.10;99.90
37518;DHT22;23366;52.498;13.446;2023-07-29T15:05:50;24.10;99.90
37518;DHT22;23366;52.498;13.446;2023-07-29T15:08:16;24.00;99.90
37518;DHT22;23366;52.498;13.446;2023-07-29T15:10:45;23.90;99.90
37518;DHT22;23366;52.498;13.446;2023-07-29T15:13:11;23.70;99.90
37518;DHT22;23366;52.498;13.446;2023-07-29T15:15:40;23.60;99.90
37518;DHT22;23366;52.498;13.446;2023-07-29T15:18:06;23.50;99.90